Time;durP1;ratioP1;P1;durP2;ratioP2;P2;SDS_P1;SDS_P2;PMS_P1;PMS_P2;Temp;Humidity;BMP_temperature;BMP_pressure;BME280_temperature;BME280_humidity;BME280_pressure;Samples;Min_cycle;Max_cycle;Signal;HPM_P1;HPM_P2
2024/03/13 00:00:04;;;;;;;;;;;;;;;;;;1903542;28;8027;-65
2024/03/13 00:01:06;;;;;;;;;;;;;;;;;;1904252;28;7096;-65
2024/03/13 00:02:04;;;;;;;;;;;;;;;;;;1903769;28;7028;-65
2024/03/13 00:03:01;;;;;;;;;;;;;;;;;;1904473;28;7049;-65
2024/03/13 00:03:59;;;;;;;;;;;;;;;;;;1907557;28;7007;-65
2024/03/13 00:04:56;;;;;;;;;;;;;;;;;;1908705;28;7008;-65
2024/03/13 00:05:54;;;;;;;;;;;;;;;;;;1911544;28;7153;-65
2024/03/13 00:06:51;;;;;;;;;;;;;;;;;;1911159;28;8012;-64
2024/03/13 00:07:49;;;;;;;;;;;;;;;;;;1904765;28;8053;-64
2024/03/13 00:08:47;;;;;;;;;;;;;;;;;;1906484;28;7033;-64
2024/03/13 00:09:49;;;;;;;;;;;;;;;;;;1905697;28;7107;-64
2024/03/13 00:10:47;;;;;;;;;;;;;;;;;;1904160;28;7041;-65
2024/03/13 00:11:44;;;;;;;;;;;;;;;;;;1909695;28;8002;-65
2024/03/13 00:12:42;;;;;;;;;;;;;;;;;;1911167;28;7097;-65
2024/03/13 00:13:42;;;;;;;;;;;;;;;;;;1911419;28;7112;-64
2024/03/13 00:14:40;;;;;;;;;;;;;;;;;;1910737;28;7107;-64
2024/03/13 00:15:38;;;;;;;;;;;;;;;;;;1910872;28;7092;-64
2024/03/13 00:16:36;;;;;;;;;;;;;;;;;;1910914;28;8158;-64
2024/03/13 00:17:33;;;;;;;;;;;;;;;;;;1907859;28;7045;-64
2024/03/13 00:18:31;;;;;;;;;;;;;;;;;;1904806;28;7001;-65
2024/03/13 00:19:29;;;;;;;;;;;;;;;;;;1911874;28;7017;-64
2024/03/13 00:20:30;;;;;;;;;;;;;;;;;;1910952;28;8026;-64
2024/03/13 00:21:28;;;;;;;;;;;;;;;;;;1910465;28;8155;-64
2024/03/13 00:22:26;;;;;;;;;;;;;;;;;;1919610;28;7335;-65
2024/03/13 00:23:23;;;;;;;;;;;;;;;;;;1925805;28;7158;-64
2024/03/13 00:24:21;;;;;;;;;;;;;;;;;;1911669;28;7136;-65
2024/03/13 00:25:19;;;;;;;;;;;;;;;;;;1905956;28;7079;-65
2024/03/13 00:26:17;;;;;;;;;;;;;;;;;;1904521;28;7014;-65
2024/03/13 00:27:15;;;;;;;;;;;;;;;;;;1903686;28;7299;-64
2024/03/13 00:28:12;;;;;;;;;;;;;;;;;;1903280;28;7021;-64
2024/03/13 00:29:10;;;;;;;;;;;;;;;;;;1904064;28;8062;-64
2024/03/13 00:30:08;;;;;;;;;;;;;;;;;;1903790;28;7103;-64
2024/03/13 00:31:08;;;;;;;;;;;;;;;;;;1910666;28;8047;-66
2024/03/13 00:32:07;;;;;;;;;;;;;;;;;;1910622;28;7009;-64
2024/03/13 00:33:04;;;;;;;;;;;;;;;;;;1911898;28;7005;-65
2024/03/13 00:34:06;;;;;;;;;;;;;;;;;;1903580;28;7318;-64
2024/03/13 00:35:04;;;;;;;;;;;;;;;;;;1902894;28;7097;-65
2024/03/13 00:36:03;;;;;;;;;;;;;;;;;;1903015;28;7176;-65
2024/03/13 00:37:00;;;;;;;;;;;;;;;;;;1903274;28;7030;-65
2024/03/13 00:37:59;;;;;;;;;;;;;;;;;;1903691;28;7013;-64
2024/03/13 00:38:58;;;;;;;;;;;;;;;;;;1909941;28;7087;-65
2024/03/13 00:39:58;;;;;;;;;;;;;;;;;;1908036;28;7004;-63
2024/03/13 00:40:55;;;;;;;;;;;;;;;;;;1903773;28;7121;-64
2024/03/13 00:41:55;;;;;;;;;;;;;;;;;;1908538;28;7045;-64
2024/03/13 00:42:54;;;;;;;;;;;;;;;;;;1904358;28;7058;-64
2024/03/13 00:43:53;;;;;;;;;;;;;;;;;;1904708;28;7009;-64
2024/03/13 00:44:52;;;;;;;;;;;;;;;;;;1910212;28;8160;-63
2024/03/13 00:45:50;;;;;;;;;;;;;;;;;;1912259;28;7123;-65
2024/03/13 00:46:48;;;;;;;;;;;;;;;;;;1910106;28;7008;-64
2024/03/13 00:47:46;;;;;;;;;;;;;;;;;;1904018;28;7300;-65
2024/03/13 00:48:43;;;;;;;;;;;;;;;;;;1904850;28;7095;-65
2024/03/13 00:49:42;;;;;;;;;;;;;;;;;;1905495;28;8043;-64
2024/03/13 00:50:40;;;;;;;;;;;;;;;;;;1905042;28;7008;-64
2024/03/13 00:51:37;;;;;;;;;;;;;;;;;;1905652;28;7021;-64
2024/03/13 00:52:38;;;;;;;;;;;;;;;;;;1904698;28;7089;-64
2024/03/13 00:53:38;;;;;;;;;;;;;;;;;;1904751;28;7142;-65
2024/03/13 00:54:36;;;;;;;;;;;;;;;;;;1904868;28;8061;-64
2024/03/13 00:55:33;;;;;;;;;;;;;;;;;;1905402;28;7235;-64
2024/03/13 00:56:32;;;;;;;;;;;;;;;;;;1905603;28;7009;-64
2024/03/13 00:57:30;;;;;;;;;;;;;;;;;;1905378;28;7042;-64
2024/03/13 00:58:28;;;;;;;;;;;;;;;;;;1905344;28;7095;-65
2024/03/13 00:59:29;;;;;;;;;;;;;;;;;;1907849;28;7046;-64
2024/03/13 01:00:29;;;;;;;;;;;;;;;;;;1910917;28;9170;-65
2024/03/13 01:01:26;;;;;;;;;;;;;;;;;;1906484;28;7009;-65
2024/03/13 01:02:24;;;;;;;;;;;;;;;;;;1905174;28;7148;-65
2024/03/13 01:03:22;;;;;;;;;;;;;;;;;;1904716;28;7024;-64
2024/03/13 01:04:20;;;;;;;;;;;;;;;;;;1909116;28;9022;-65
2024/03/13 01:05:18;;;;;;;;;;;;;;;;;;1905047;28;7013;-65
2024/03/13 01:06:17;;;;;;;;;;;;;;;;;;1905254;28;8002;-64
2024/03/13 01:07:15;;;;;;;;;;;;;;;;;;1908978;28;7013;-65
2024/03/13 01:08:14;;;;;;;;;;;;;;;;;;1912747;28;7005;-64
2024/03/13 01:09:11;;;;;;;;;;;;;;;;;;1907504;28;8159;-65
2024/03/13 01:10:09;;;;;;;;;;;;;;;;;;1911513;28;7012;-65
2024/03/13 01:11:06;;;;;;;;;;;;;;;;;;1905221;28;7009;-64
2024/03/13 01:12:05;;;;;;;;;;;;;;;;;;1913573;28;7005;-64
2024/03/13 01:13:05;;;;;;;;;;;;;;;;;;1904600;28;7008;-64
2024/03/13 01:14:06;;;;;;;;;;;;;;;;;;1909814;28;7691;-64
2024/03/13 01:15:04;;;;;;;;;;;;;;;;;;1908553;28;7113;-64
2024/03/13 01:16:02;;;;;;;;;;;;;;;;;;1904833;28;7029;-64
2024/03/13 01:17:02;;;;;;;;;;;;;;;;;;1905057;28;8780;-64
2024/03/13 01:18:00;;;;;;;;;;;;;;;;;;1905416;28;7092;-65
2024/03/13 01:18:59;;;;;;;;;;;;;;;;;;1904976;28;8113;-64
2024/03/13 01:19:57;;;;;;;;;;;;;;;;;;1905508;28;7005;-65
2024/03/13 01:20:55;;;;;;;;;;;;;;;;;;1904719;28;7697;-64
2024/03/13 01:21:54;;;;;;;;;;;;;;;;;;1910162;28;8013;-65
2024/03/13 01:22:54;;;;;;;;;;;;;;;;;;1911775;28;7005;-64
2024/03/13 01:23:51;;;;;;;;;;;;;;;;;;1904314;28;7096;-64
2024/03/13 01:24:49;;;;;;;;;;;;;;;;;;1905252;28;8098;-64
2024/03/13 01:25:47;;;;;;;;;;;;;;;;;;1905125;28;7037;-65
2024/03/13 01:26:45;;;;;;;;;;;;;;;;;;1904789;28;7108;-65
2024/03/13 01:27:43;;;;;;;;;;;;;;;;;;1905312;28;7024;-64
2024/03/13 01:28:42;;;;;;;;;;;;;;;;;;1908092;28;7045;-65
2024/03/13 01:29:46;;;;;;;;;;;;;;;;;;1911458;28;8070;-65
2024/03/13 01:30:44;;;;;;;;;;;;;;;;;;1908219;28;7147;-64
2024/03/13 01:31:42;;;;;;;;;;;;;;;;;;1904033;28;7017;-64
2024/03/13 01:32:39;;;;;;;;;;;;;;;;;;1904449;28;7143;-64
2024/03/13 01:33:38;;;;;;;;;;;;;;;;;;1905369;28;7008;-64
2024/03/13 01:34:35;;;;;;;;;;;;;;;;;;1906282;28;7012;-64
2024/03/13 01:35:33;;;;;;;;;;;;;;;;;;1904619;28;7088;-64
2024/03/13 01:37:56;;;;;;;;;;;;;;;;;;1905229;28;7116;-64
2024/03/13 01:38:53;;;;;;;;;;;;;;;;;;1905581;28;8029;-65
2024/03/13 01:39:52;;;;;;;;;;;;;;;;;;1905080;28;7381;-65
2024/03/13 01:55:13;;;;;;;;;;;;;;;;;;1906005;28;7683;-67
2024/03/13 01:56:27;;;;;;;;;;;;;;;;;;1912675;28;8012;-65
2024/03/13 01:57:33;;;;;;;;;;;;;;;;;;1912441;28;7013;-65
2024/03/13 01:58:40;;;;;;;;;;;;;;;;;;1912031;28;7419;-64
2024/03/13 01:59:48;;;;;;;;;;;;;;;;;;1907042;28;7050;-65
2024/03/13 02:03:22;;;;;;;;;;;;;;;;;;1905046;28;8555;-67
2024/03/13 02:04:20;;;;;;;;;;;;;;;;;;1904230;28;7005;-67
2024/03/13 02:05:18;;;;;;;;;;;;;;;;;;1904599;28;8066;-66
2024/03/13 02:06:16;;;;;;;;;;;;;;;;;;1908683;28;7062;-64
2024/03/13 02:07:14;;;;;;;;;;;;;;;;;;1911623;28;8007;-65
2024/03/13 02:08:14;;;;;;;;;;;;;;;;;;1912264;28;7176;-64
2024/03/13 02:09:11;;;;;;;;;;;;;;;;;;1903729;28;7128;-64
2024/03/13 02:10:09;;;;;;;;;;;;;;;;;;1906513;28;8127;-64
2024/03/13 02:11:06;;;;;;;;;;;;;;;;;;1911418;28;7923;-64
2024/03/13 02:12:08;;;;;;;;;;;;;;;;;;1912430;28;7278;-65
2024/03/13 02:13:10;;;;;;;;;;;;;;;;;;1910901;28;7139;-64
2024/03/13 02:14:08;;;;;;;;;;;;;;;;;;1904078;28;7128;-64
2024/03/13 02:15:05;;;;;;;;;;;;;;;;;;1904441;28;7108;-64
2024/03/13 02:16:05;;;;;;;;;;;;;;;;;;1904063;28;7012;-65
2024/03/13 02:17:02;;;;;;;;;;;;;;;;;;1904413;28;7037;-65
2024/03/13 02:18:00;;;;;;;;;;;;;;;;;;1904863;28;7008;-65
2024/03/13 02:19:02;;;;;;;;;;;;;;;;;;1904706;28;8053;-64
2024/03/13 02:20:03;;;;;;;;;;;;;;;;;;1903757;28;7219;-64
2024/03/13 02:21:01;;;;;;;;;;;;;;;;;;1903830;28;7036;-65
2024/03/13 02:22:00;;;;;;;;;;;;;;;;;;1903986;28;7012;-64
2024/03/13 02:23:04;;;;;;;;;;;;;;;;;;1904189;28;8146;-64
2024/03/13 02:24:02;;;;;;;;;;;;;;;;;;1904249;28;7005;-64
2024/03/13 02:24:59;;;;;;;;;;;;;;;;;;1904271;28;7042;-64
2024/03/13 02:25:57;;;;;;;;;;;;;;;;;;1909654;28;7109;-64
2024/03/13 02:26:54;;;;;;;;;;;;;;;;;;1912603;28;7109;-64
2024/03/13 02:27:52;;;;;;;;;;;;;;;;;;1909542;28;7118;-64
2024/03/13 02:28:51;;;;;;;;;;;;;;;;;;1904226;28;7012;-65
2024/03/13 02:29:51;;;;;;;;;;;;;;;;;;1908935;28;7013;-64
2024/03/13 02:30:49;;;;;;;;;;;;;;;;;;1911644;28;7012;-64
2024/03/13 02:31:46;;;;;;;;;;;;;;;;;;1912026;28;7123;-64
2024/03/13 02:32:48;;;;;;;;;;;;;;;;;;1905959;28;7008;-65
2024/03/13 02:33:46;;;;;;;;;;;;;;;;;;1904887;28;7009;-64
2024/03/13 02:34:46;;;;;;;;;;;;;;;;;;1905001;28;7004;-65
2024/03/13 02:35:44;;;;;;;;;;;;;;;;;;1904585;28;7013;-64
2024/03/13 02:36:42;;;;;;;;;;;;;;;;;;1904104;28;8085;-65
2024/03/13 02:37:41;;;;;;;;;;;;;;;;;;1904687;28;7041;-67
2024/03/13 02:38:38;;;;;;;;;;;;;;;;;;1904621;28;7104;-65
2024/03/13 02:39:36;;;;;;;;;;;;;;;;;;1904026;28;7398;-65
2024/03/13 02:40:33;;;;;;;;;;;;;;;;;;1904300;28;7009;-66
2024/03/13 02:41:31;;;;;;;;;;;;;;;;;;1905029;28;7112;-67
2024/03/13 02:42:28;;;;;;;;;;;;;;;;;;1905061;28;7046;-66
2024/03/13 02:43:25;;;;;;;;;;;;;;;;;;1911433;28;7005;-64
2024/03/13 02:44:23;;;;;;;;;;;;;;;;;;1910248;28;7138;-64
2024/03/13 02:45:22;;;;;;;;;;;;;;;;;;1903766;28;7093;-64
2024/03/13 02:46:19;;;;;;;;;;;;;;;;;;1904076;28;7087;-64
2024/03/13 02:47:18;;;;;;;;;;;;;;;;;;1906499;28;7013;-65
2024/03/13 02:48:16;;;;;;;;;;;;;;;;;;1904559;28;7012;-64
2024/03/13 02:49:15;;;;;;;;;;;;;;;;;;1904363;28;7092;-65
2024/03/13 02:50:12;;;;;;;;;;;;;;;;;;1904156;28;7038;-64
2024/03/13 02:51:09;;;;;;;;;;;;;;;;;;1905392;28;8064;-65
2024/03/13 02:52:07;;;;;;;;;;;;;;;;;;1911920;28;7013;-64
2024/03/13 02:53:07;;;;;;;;;;;;;;;;;;1911548;28;7315;-65
2024/03/13 02:54:04;;;;;;;;;;;;;;;;;;1911407;28;7010;-64
2024/03/13 02:55:02;;;;;;;;;;;;;;;;;;1911864;28;7126;-64
2024/03/13 02:56:01;;;;;;;;;;;;;;;;;;1909459;28;8697;-65
2024/03/13 02:56:58;;;;;;;;;;;;;;;;;;1904725;28;7045;-65
2024/03/13 02:57:56;;;;;;;;;;;;;;;;;;1909399;28;8055;-64
2024/03/13 02:58:53;;;;;;;;;;;;;;;;;;1908546;28;7181;-65
2024/03/13 02:59:51;;;;;;;;;;;;;;;;;;1905453;28;8412;-65
2024/03/13 03:00:48;;;;;;;;;;;;;;;;;;1911704;28;7049;-66
2024/03/13 03:01:48;;;;;;;;;;;;;;;;;;1903835;28;8103;-65
2024/03/13 03:02:46;;;;;;;;;;;;;;;;;;1903533;28;7120;-65
2024/03/13 03:03:43;;;;;;;;;;;;;;;;;;1904625;28;7020;-64
2024/03/13 03:04:42;;;;;;;;;;;;;;;;;;1904076;28;8035;-65
2024/03/13 03:05:39;;;;;;;;;;;;;;;;;;1907312;28;7013;-65
2024/03/13 03:06:36;;;;;;;;;;;;;;;;;;1904642;28;7025;-64
2024/03/13 03:07:34;;;;;;;;;;;;;;;;;;1904312;28;7013;-65
2024/03/13 03:08:33;;;;;;;;;;;;;;;;;;1904268;28;8115;-64
2024/03/13 03:09:31;;;;;;;;;;;;;;;;;;1908956;28;7212;-64
2024/03/13 03:10:28;;;;;;;;;;;;;;;;;;1905066;28;7088;-64
2024/03/13 03:11:26;;;;;;;;;;;;;;;;;;1904035;28;8169;-65
2024/03/13 03:12:23;;;;;;;;;;;;;;;;;;1903725;28;7088;-64
2024/03/13 03:13:21;;;;;;;;;;;;;;;;;;1907721;28;7323;-65
2024/03/13 03:14:20;;;;;;;;;;;;;;;;;;1910029;28;8841;-64
2024/03/13 03:15:18;;;;;;;;;;;;;;;;;;1903823;28;7013;-65
2024/03/13 03:16:18;;;;;;;;;;;;;;;;;;1904236;28;7297;-64
2024/03/13 03:17:16;;;;;;;;;;;;;;;;;;1904453;28;7373;-64
2024/03/13 03:18:14;;;;;;;;;;;;;;;;;;1904125;28;7013;-65
2024/03/13 03:19:12;;;;;;;;;;;;;;;;;;1904289;28;8033;-64
2024/03/13 03:20:10;;;;;;;;;;;;;;;;;;1905635;28;8010;-64
2024/03/13 03:21:08;;;;;;;;;;;;;;;;;;1911097;28;7013;-64
2024/03/13 03:22:05;;;;;;;;;;;;;;;;;;1911224;28;7044;-65
2024/03/13 03:23:03;;;;;;;;;;;;;;;;;;1904390;28;7052;-65
2024/03/13 03:24:00;;;;;;;;;;;;;;;;;;1903772;28;7151;-64
2024/03/13 03:24:59;;;;;;;;;;;;;;;;;;1904287;28;7008;-65
2024/03/13 03:25:57;;;;;;;;;;;;;;;;;;1903849;28;7430;-65
2024/03/13 03:26:55;;;;;;;;;;;;;;;;;;1904193;28;7009;-65
2024/03/13 03:27:52;;;;;;;;;;;;;;;;;;1902374;28;7130;-64
2024/03/13 03:28:50;;;;;;;;;;;;;;;;;;1903862;28;7986;-65
2024/03/13 03:29:47;;;;;;;;;;;;;;;;;;1904104;28;7053;-65
2024/03/13 03:30:48;;;;;;;;;;;;;;;;;;1903935;28;7013;-64
2024/03/13 03:31:46;;;;;;;;;;;;;;;;;;1904504;28;7112;-63
2024/03/13 03:32:43;;;;;;;;;;;;;;;;;;1904399;28;7048;-64
2024/03/13 03:33:41;;;;;;;;;;;;;;;;;;1904118;28;7009;-64
2024/03/13 03:34:39;;;;;;;;;;;;;;;;;;1908565;28;7037;-65
2024/03/13 03:35:38;;;;;;;;;;;;;;;;;;1903985;28;7034;-64
2024/03/13 03:36:36;;;;;;;;;;;;;;;;;;1903654;28;8027;-65
2024/03/13 03:37:33;;;;;;;;;;;;;;;;;;1903959;28;7005;-65
2024/03/13 03:38:32;;;;;;;;;;;;;;;;;;1904410;28;7053;-64
2024/03/13 03:39:33;;;;;;;;;;;;;;;;;;1911699;28;7152;-65
2024/03/13 03:40:30;;;;;;;;;;;;;;;;;;1911384;28;7265;-64
2024/03/13 03:41:27;;;;;;;;;;;;;;;;;;1911778;28;7016;-64
2024/03/13 03:42:25;;;;;;;;;;;;;;;;;;1903173;28;7088;-64
2024/03/13 03:43:22;;;;;;;;;;;;;;;;;;1903743;28;7143;-64
2024/03/13 03:44:20;;;;;;;;;;;;;;;;;;1907597;28;8040;-65
2024/03/13 03:45:17;;;;;;;;;;;;;;;;;;1904348;28;7084;-64
2024/03/13 03:46:15;;;;;;;;;;;;;;;;;;1909218;28;8039;-65
2024/03/13 03:47:12;;;;;;;;;;;;;;;;;;1911527;28;8544;-64
2024/03/13 03:48:10;;;;;;;;;;;;;;;;;;1911143;28;7173;-64
2024/03/13 03:49:10;;;;;;;;;;;;;;;;;;1911327;28;7091;-64
2024/03/13 03:50:07;;;;;;;;;;;;;;;;;;1907162;28;7009;-64
2024/03/13 03:51:05;;;;;;;;;;;;;;;;;;1910965;28;7399;-64
2024/03/13 03:52:07;;;;;;;;;;;;;;;;;;1902917;28;7100;-64
2024/03/13 03:53:04;;;;;;;;;;;;;;;;;;1903554;28;7129;-65
2024/03/13 03:54:02;;;;;;;;;;;;;;;;;;1910910;28;7049;-64
2024/03/13 03:54:59;;;;;;;;;;;;;;;;;;1912092;28;7129;-64
2024/03/13 03:55:58;;;;;;;;;;;;;;;;;;1907573;28;7051;-64
2024/03/13 03:56:55;;;;;;;;;;;;;;;;;;1903709;28;8037;-64
2024/03/13 03:57:53;;;;;;;;;;;;;;;;;;1904643;28;8064;-65
2024/03/13 03:58:50;;;;;;;;;;;;;;;;;;1905966;28;8049;-64
2024/03/13 03:59:48;;;;;;;;;;;;;;;;;;1905442;28;7009;-65
2024/03/13 04:00:45;;;;;;;;;;;;;;;;;;1912197;28;7120;-65
2024/03/13 04:01:43;;;;;;;;;;;;;;;;;;1911582;28;7159;-65
2024/03/13 04:02:42;;;;;;;;;;;;;;;;;;1910664;28;7100;-65
2024/03/13 04:03:41;;;;;;;;;;;;;;;;;;1911713;28;7323;-66
2024/03/13 04:04:38;;;;;;;;;;;;;;;;;;1911234;28;8013;-64
2024/03/13 04:05:35;;;;;;;;;;;;;;;;;;1910401;28;7012;-64
2024/03/13 04:06:33;;;;;;;;;;;;;;;;;;1903560;28;7096;-64
2024/03/13 04:07:30;;;;;;;;;;;;;;;;;;1903922;28;7999;-65
2024/03/13 04:08:28;;;;;;;;;;;;;;;;;;1903377;28;7160;-65
2024/03/13 04:09:26;;;;;;;;;;;;;;;;;;1905982;28;7044;-65
2024/03/13 04:10:24;;;;;;;;;;;;;;;;;;1911203;28;7315;-65
2024/03/13 04:11:23;;;;;;;;;;;;;;;;;;1911857;28;7303;-67
2024/03/13 04:12:20;;;;;;;;;;;;;;;;;;1909924;28;7099;-64
2024/03/13 04:13:19;;;;;;;;;;;;;;;;;;1903313;28;7021;-65
2024/03/13 04:14:18;;;;;;;;;;;;;;;;;;1903346;28;9033;-64
2024/03/13 04:15:16;;;;;;;;;;;;;;;;;;1905431;28;7012;-64
2024/03/13 04:16:16;;;;;;;;;;;;;;;;;;1910424;28;8011;-67
2024/03/13 04:17:14;;;;;;;;;;;;;;;;;;1913430;28;7095;-64
2024/03/13 04:18:12;;;;;;;;;;;;;;;;;;1912976;28;7191;-67
2024/03/13 04:19:10;;;;;;;;;;;;;;;;;;1912573;28;7001;-64
2024/03/13 04:20:18;;;;;;;;;;;;;;;;;;1908508;28;7008;-64
2024/03/13 04:21:16;;;;;;;;;;;;;;;;;;1905392;28;7066;-64
2024/03/13 04:22:16;;;;;;;;;;;;;;;;;;1905200;28;7096;-64
2024/03/13 04:23:14;;;;;;;;;;;;;;;;;;1904030;28;7982;-65
2024/03/13 04:24:11;;;;;;;;;;;;;;;;;;1908126;28;7091;-65
2024/03/13 04:25:09;;;;;;;;;;;;;;;;;;1911796;28;7354;-64
2024/03/13 04:26:06;;;;;;;;;;;;;;;;;;1909373;28;7034;-65
2024/03/13 04:27:04;;;;;;;;;;;;;;;;;;1912271;28;7044;-64
2024/03/13 04:28:01;;;;;;;;;;;;;;;;;;1912862;28;7123;-64
2024/03/13 04:28:59;;;;;;;;;;;;;;;;;;1906602;28;7061;-65
2024/03/13 04:29:56;;;;;;;;;;;;;;;;;;1906202;28;7100;-65
2024/03/13 04:30:54;;;;;;;;;;;;;;;;;;1906903;28;7092;-64
2024/03/13 04:31:51;;;;;;;;;;;;;;;;;;1913139;28;7045;-65
2024/03/13 04:32:49;;;;;;;;;;;;;;;;;;1913374;28;7012;-64
2024/03/13 04:33:47;;;;;;;;;;;;;;;;;;1913825;28;7139;-65
2024/03/13 04:34:45;;;;;;;;;;;;;;;;;;1913608;28;7040;-64
2024/03/13 04:35:42;;;;;;;;;;;;;;;;;;1913281;28;8034;-64
2024/03/13 04:36:40;;;;;;;;;;;;;;;;;;1913953;28;8041;-65
2024/03/13 04:37:39;;;;;;;;;;;;;;;;;;1913987;28;7248;-65
2024/03/13 04:38:36;;;;;;;;;;;;;;;;;;1913290;28;7011;-64
2024/03/13 04:39:34;;;;;;;;;;;;;;;;;;1913126;28;8044;-64
2024/03/13 04:40:31;;;;;;;;;;;;;;;;;;1913322;28;7087;-64
2024/03/13 04:41:30;;;;;;;;;;;;;;;;;;1912762;28;7024;-64
2024/03/13 04:42:28;;;;;;;;;;;;;;;;;;1912749;28;7012;-63
2024/03/13 04:43:27;;;;;;;;;;;;;;;;;;1913864;28;7013;-65
2024/03/13 04:44:26;;;;;;;;;;;;;;;;;;1909217;28;7304;-66
2024/03/13 04:45:24;;;;;;;;;;;;;;;;;;1905000;28;7131;-65
2024/03/13 04:46:21;;;;;;;;;;;;;;;;;;1905600;28;7130;-64
2024/03/13 04:47:19;;;;;;;;;;;;;;;;;;1912562;28;8098;-65
2024/03/13 04:48:16;;;;;;;;;;;;;;;;;;1905154;28;7220;-66
2024/03/13 04:49:13;;;;;;;;;;;;;;;;;;1905346;28;7564;-64
2024/03/13 04:50:11;;;;;;;;;;;;;;;;;;1905471;28;7006;-64
2024/03/13 04:51:09;;;;;;;;;;;;;;;;;;1908138;28;7045;-64
2024/03/13 04:52:06;;;;;;;;;;;;;;;;;;1905215;28;7016;-65
2024/03/13 04:53:04;;;;;;;;;;;;;;;;;;1906266;28;7009;-64
2024/03/13 04:54:04;;;;;;;;;;;;;;;;;;1913313;28;8020;-65
2024/03/13 04:55:02;;;;;;;;;;;;;;;;;;1912316;28;7129;-64
2024/03/13 04:56:00;;;;;;;;;;;;;;;;;;1913062;28;7990;-64
2024/03/13 04:56:57;;;;;;;;;;;;;;;;;;1914082;28;7088;-64
2024/03/13 04:57:55;;;;;;;;;;;;;;;;;;1912854;28;7041;-65
2024/03/13 04:58:53;;;;;;;;;;;;;;;;;;1913624;28;7119;-65
2024/03/13 04:59:50;;;;;;;;;;;;;;;;;;1913139;28;7016;-64
2024/03/13 05:00:47;;;;;;;;;;;;;;;;;;1904472;28;7009;-64
2024/03/13 05:01:45;;;;;;;;;;;;;;;;;;1905932;28;7025;-65
2024/03/13 05:02:43;;;;;;;;;;;;;;;;;;1905541;28;7013;-64
2024/03/13 05:03:40;;;;;;;;;;;;;;;;;;1905670;28;8014;-64
2024/03/13 05:04:38;;;;;;;;;;;;;;;;;;1905920;28;8028;-64
2024/03/13 05:05:35;;;;;;;;;;;;;;;;;;1906166;28;7022;-64
2024/03/13 05:06:33;;;;;;;;;;;;;;;;;;1919448;28;7248;-65
2024/03/13 05:07:30;;;;;;;;;;;;;;;;;;1920140;28;7143;-65
2024/03/13 05:08:27;;;;;;;;;;;;;;;;;;1907840;28;7986;-65
2024/03/13 05:09:25;;;;;;;;;;;;;;;;;;1906799;28;7009;-64
2024/03/13 05:10:23;;;;;;;;;;;;;;;;;;1907368;28;7005;-65
2024/03/13 05:11:21;;;;;;;;;;;;;;;;;;1905486;28;7008;-65
2024/03/13 05:12:19;;;;;;;;;;;;;;;;;;1906191;28;8608;-65
2024/03/13 05:13:16;;;;;;;;;;;;;;;;;;1905512;28;7005;-65
2024/03/13 05:14:13;;;;;;;;;;;;;;;;;;1904980;28;7133;-65
2024/03/13 05:15:12;;;;;;;;;;;;;;;;;;1905621;28;7833;-64
2024/03/13 05:16:11;;;;;;;;;;;;;;;;;;1905180;28;7054;-64
2024/03/13 05:17:15;;;;;;;;;;;;;;;;;;1904918;28;7199;-65
2024/03/13 05:18:13;;;;;;;;;;;;;;;;;;1905627;28;7035;-64
2024/03/13 05:19:11;;;;;;;;;;;;;;;;;;1905364;28;7009;-64
2024/03/13 05:20:11;;;;;;;;;;;;;;;;;;1906105;28;7038;-64
2024/03/13 05:21:12;;;;;;;;;;;;;;;;;;1904732;28;7021;-65
2024/03/13 05:22:10;;;;;;;;;;;;;;;;;;1905073;28;7203;-65
2024/03/13 05:23:08;;;;;;;;;;;;;;;;;;1904605;28;7319;-64
2024/03/13 05:24:06;;;;;;;;;;;;;;;;;;1908602;28;7057;-65
2024/03/13 05:25:05;;;;;;;;;;;;;;;;;;1904524;28;8289;-64
2024/03/13 05:26:03;;;;;;;;;;;;;;;;;;1912090;28;7327;-65
2024/03/13 05:27:00;;;;;;;;;;;;;;;;;;1912978;28;7619;-65
2024/03/13 05:27:57;;;;;;;;;;;;;;;;;;1912984;28;7845;-64
2024/03/13 05:28:55;;;;;;;;;;;;;;;;;;1912208;28;7119;-65
2024/03/13 05:29:52;;;;;;;;;;;;;;;;;;1912479;28;8020;-64
2024/03/13 05:30:50;;;;;;;;;;;;;;;;;;1913234;28;7013;-64
2024/03/13 05:31:49;;;;;;;;;;;;;;;;;;1909071;28;8034;-64
2024/03/13 05:32:47;;;;;;;;;;;;;;;;;;1912537;28;7119;-64
2024/03/13 05:33:44;;;;;;;;;;;;;;;;;;1912613;28;7012;-65
2024/03/13 05:34:42;;;;;;;;;;;;;;;;;;1910108;28;7025;-65
2024/03/13 05:35:40;;;;;;;;;;;;;;;;;;1912850;28;9840;-65
2024/03/13 05:36:38;;;;;;;;;;;;;;;;;;1912437;28;7091;-64
2024/03/13 05:37:35;;;;;;;;;;;;;;;;;;1912523;28;8030;-64
2024/03/13 05:38:33;;;;;;;;;;;;;;;;;;1912563;28;8021;-65
2024/03/13 05:39:31;;;;;;;;;;;;;;;;;;1904329;28;7009;-65
2024/03/13 05:40:28;;;;;;;;;;;;;;;;;;1904649;28;7109;-65
2024/03/13 05:41:26;;;;;;;;;;;;;;;;;;1905452;28;7111;-65
2024/03/13 05:42:24;;;;;;;;;;;;;;;;;;1905379;28;8015;-64
2024/03/13 05:43:21;;;;;;;;;;;;;;;;;;1905264;28;7332;-64
2024/03/13 05:44:19;;;;;;;;;;;;;;;;;;1906623;28;7007;-64
2024/03/13 05:45:16;;;;;;;;;;;;;;;;;;1912531;28;7954;-65
2024/03/13 05:46:13;;;;;;;;;;;;;;;;;;1912433;28;7113;-64
2024/03/13 05:47:11;;;;;;;;;;;;;;;;;;1912912;28;8022;-64
2024/03/13 05:48:08;;;;;;;;;;;;;;;;;;1913301;28;7008;-65
2024/03/13 05:49:06;;;;;;;;;;;;;;;;;;1913155;28;7037;-64
2024/03/13 05:50:03;;;;;;;;;;;;;;;;;;1912482;28;7091;-65
2024/03/13 05:51:02;;;;;;;;;;;;;;;;;;1912553;28;7013;-64
2024/03/13 05:51:59;;;;;;;;;;;;;;;;;;1912667;28;7090;-64
2024/03/13 05:52:57;;;;;;;;;;;;;;;;;;1913010;28;8052;-65
2024/03/13 05:53:55;;;;;;;;;;;;;;;;;;1912121;28;7013;-64
2024/03/13 05:54:52;;;;;;;;;;;;;;;;;;1913110;28;7264;-65
2024/03/13 05:55:49;;;;;;;;;;;;;;;;;;1905543;28;7150;-64
2024/03/13 05:56:47;;;;;;;;;;;;;;;;;;1904838;28;7136;-65
2024/03/13 05:57:44;;;;;;;;;;;;;;;;;;1905237;28;7985;-64
2024/03/13 05:58:42;;;;;;;;;;;;;;;;;;1905295;28;8028;-65
2024/03/13 05:59:39;;;;;;;;;;;;;;;;;;1905411;28;7032;-64
2024/03/13 06:00:41;;;;;;;;;;;;;;;;;;1904492;28;7096;-64
2024/03/13 06:01:38;;;;;;;;;;;;;;;;;;1905345;28;7053;-64
2024/03/13 06:02:36;;;;;;;;;;;;;;;;;;1905227;28;7237;-64
2024/03/13 06:03:36;;;;;;;;;;;;;;;;;;1905074;28;7856;-65
2024/03/13 06:04:33;;;;;;;;;;;;;;;;;;1905140;28;7105;-65
2024/03/13 06:05:34;;;;;;;;;;;;;;;;;;1905350;28;7128;-65
2024/03/13 06:06:31;;;;;;;;;;;;;;;;;;1905532;28;7302;-65
2024/03/13 06:07:29;;;;;;;;;;;;;;;;;;1912005;28;7046;-65
2024/03/13 06:08:27;;;;;;;;;;;;;;;;;;1912271;28;7366;-64
2024/03/13 06:09:25;;;;;;;;;;;;;;;;;;1912908;28;7049;-64
2024/03/13 06:10:22;;;;;;;;;;;;;;;;;;1919238;28;7011;-65
2024/03/13 06:11:20;;;;;;;;;;;;;;;;;;1919355;28;7108;-64
2024/03/13 06:12:18;;;;;;;;;;;;;;;;;;1913087;28;7316;-64
2024/03/13 06:13:16;;;;;;;;;;;;;;;;;;1907011;28;7013;-64
2024/03/13 06:14:13;;;;;;;;;;;;;;;;;;1906601;28;7099;-64
2024/03/13 06:15:14;;;;;;;;;;;;;;;;;;1904871;28;7115;-64
2024/03/13 06:16:13;;;;;;;;;;;;;;;;;;1905638;28;7100;-64
2024/03/13 06:17:12;;;;;;;;;;;;;;;;;;1905563;28;7096;-64
2024/03/13 06:18:10;;;;;;;;;;;;;;;;;;1904924;28;7005;-65
2024/03/13 06:19:08;;;;;;;;;;;;;;;;;;1905157;28;7057;-64
2024/03/13 06:20:13;;;;;;;;;;;;;;;;;;1905276;28;7079;-65
2024/03/13 06:21:11;;;;;;;;;;;;;;;;;;1911284;28;7099;-64
2024/03/13 06:22:09;;;;;;;;;;;;;;;;;;1912738;28;7012;-64
2024/03/13 06:23:07;;;;;;;;;;;;;;;;;;1913188;28;7116;-64
2024/03/13 06:24:06;;;;;;;;;;;;;;;;;;1912158;28;7016;-64
2024/03/13 06:25:06;;;;;;;;;;;;;;;;;;1913076;28;7332;-64
2024/03/13 06:26:04;;;;;;;;;;;;;;;;;;1912333;28;7029;-64
2024/03/13 06:27:05;;;;;;;;;;;;;;;;;;1911757;28;8011;-64
2024/03/13 06:29:55;;;;;;;;;;;;;;;;;;1911290;28;7327;-65
2024/03/13 06:30:35;;;;;;;;;;;;;;;;;;1910208;28;8133;-65
2024/03/13 06:31:37;;;;;;;;;;;;;;;;;;1904716;28;7091;-64
2024/03/13 06:32:35;;;;;;;;;;;;;;;;;;1904669;28;7054;-64
2024/03/13 06:33:32;;;;;;;;;;;;;;;;;;1904675;28;7045;-64
2024/03/13 06:34:30;;;;;;;;;;;;;;;;;;1905357;28;7172;-64
2024/03/13 06:35:30;;;;;;;;;;;;;;;;;;1911382;28;7150;-64
2024/03/13 06:36:28;;;;;;;;;;;;;;;;;;1912314;28;7323;-65
2024/03/13 06:37:25;;;;;;;;;;;;;;;;;;1911808;28;8075;-64
2024/03/13 06:38:23;;;;;;;;;;;;;;;;;;1912465;28;7041;-65
2024/03/13 06:39:23;;;;;;;;;;;;;;;;;;1913133;28;7016;-64
2024/03/13 06:40:20;;;;;;;;;;;;;;;;;;1909922;28;7020;-64
2024/03/13 06:41:18;;;;;;;;;;;;;;;;;;1904936;28;7948;-64
2024/03/13 06:42:15;;;;;;;;;;;;;;;;;;1904410;28;7050;-64
2024/03/13 06:43:14;;;;;;;;;;;;;;;;;;1906291;28;7033;-64
2024/03/13 06:44:12;;;;;;;;;;;;;;;;;;1908640;28;7952;-65
2024/03/13 06:45:10;;;;;;;;;;;;;;;;;;1912904;28;8027;-63
2024/03/13 06:46:15;;;;;;;;;;;;;;;;;;1912197;28;8035;-65
2024/03/13 06:47:12;;;;;;;;;;;;;;;;;;1919180;28;7140;-65
2024/03/13 06:48:10;;;;;;;;;;;;;;;;;;1918899;28;8025;-64
2024/03/13 06:49:07;;;;;;;;;;;;;;;;;;1906679;28;7045;-64
2024/03/13 06:50:05;;;;;;;;;;;;;;;;;;1904844;28;7131;-65
2024/03/13 06:51:06;;;;;;;;;;;;;;;;;;1904509;28;8508;-64
2024/03/13 06:52:04;;;;;;;;;;;;;;;;;;1911808;28;7012;-64
2024/03/13 06:53:01;;;;;;;;;;;;;;;;;;1912393;28;7116;-64
2024/03/13 06:53:58;;;;;;;;;;;;;;;;;;1911939;28;8030;-64
2024/03/13 06:54:56;;;;;;;;;;;;;;;;;;1908902;28;8045;-64
2024/03/13 06:55:53;;;;;;;;;;;;;;;;;;1911588;28;7324;-65
2024/03/13 06:56:50;;;;;;;;;;;;;;;;;;1908074;28;7139;-64
2024/03/13 06:57:49;;;;;;;;;;;;;;;;;;1904917;28;7340;-65
2024/03/13 06:58:46;;;;;;;;;;;;;;;;;;1904393;28;7037;-64
2024/03/13 06:59:44;;;;;;;;;;;;;;;;;;1905104;28;7087;-64
2024/03/13 07:00:42;;;;;;;;;;;;;;;;;;1907729;28;7009;-64
2024/03/13 07:01:40;;;;;;;;;;;;;;;;;;1919160;28;8103;-63
2024/03/13 07:02:38;;;;;;;;;;;;;;;;;;1914545;28;7024;-65
2024/03/13 07:03:35;;;;;;;;;;;;;;;;;;1912284;28;7008;-65
2024/03/13 07:04:33;;;;;;;;;;;;;;;;;;1906828;28;7008;-64